McAllister, Montana
Current Conditions -  °F | °C
As of 3:56 PM on Wednesday 26 Nov 2014 (Local Time) from KBZN Reporting Station
Haze Haze  
Wind Chill: 23°   Ceiling: Unl
Heat Index: 28°   Visibility: 5mi
Dew Point: 26°   Wind: 5mph
Humidity: 92%   Direction: 60°ENE
Pressure: 30.14"   Gusts: NA
Location:  45.44°N, 111.73°W
Report Text: KBZN 262256Z 06004KT 5SM BR SCT110 M02/M03 A3014 RMK AO2 SLP246 T10221033 $
Loading
Personal Weather Stations






























Interactive Weather Map New forecast layout! Learn more

10-Day Weather Forecast

Advertisements
Track Severe Weather on mobile